Time;durP1;ratioP1;P1;durP2;ratioP2;P2;SDS_P1;SDS_P2;PMS_P1;PMS_P2;Temp;Humidity;BMP_temperature;BMP_pressure;BME280_temperature;BME280_humidity;BME280_pressure;Samples;Min_cycle;Max_cycle;Signal;HPM_P1;HPM_P2
2021/11/03 05:51:22;;;;;;;;;;;;;;;;;;4918765;23;19923;-64
2021/11/03 05:53:48;;;;;;;;;;;;;;;;;;4917097;29;19998;-60
2021/11/03 05:56:14;;;;;;;;;;;;;;;;;;4917204;29;19966;-58
2021/11/03 05:58:39;;;;;;;;;;;;;;;;;;4916868;29;19919;-65
2021/11/03 06:01:05;;;;;;;;;;;;;;;;;;4917108;29;20244;-58
2021/11/03 06:03:31;;;;;;;;;;;;;;;;;;4899793;29;19918;-64
2021/11/03 06:05:57;;;;;;;;;;;;;;;;;;4916916;29;19918;-64
2021/11/03 06:08:23;;;;;;;;;;;;;;;;;;4916809;29;19915;-57
2021/11/03 06:10:50;;;;;;;;;;;;;;;;;;4916731;29;19911;-64
2021/11/03 06:13:17;;;;;;;;;;;;;;;;;;4917002;29;19907;-61
2021/11/03 06:15:43;;;;;;;;;;;;;;;;;;4916822;29;19911;-62
2021/11/03 06:18:09;;;;;;;;;;;;;;;;;;4916843;29;19987;-60
2021/11/03 06:20:35;;;;;;;;;;;;;;;;;;4916523;29;20002;-58
2021/11/03 06:23:01;;;;;;;;;;;;;;;;;;4916697;29;20371;-62
2021/11/03 06:25:27;;;;;;;;;;;;;;;;;;4916808;29;19911;-59
2021/11/03 06:27:53;;;;;;;;;;;;;;;;;;4916669;29;19910;-59
2021/11/03 06:30:18;;;;;;;;;;;;;;;;;;4916402;29;20327;-69
2021/11/03 06:32:44;;;;;;;;;;;;;;;;;;4915945;29;19910;-59
2021/11/03 06:35:10;;;;;;;;;;;;;;;;;;4916332;29;19915;-64
2021/11/03 06:37:37;;;;;;;;;;;;;;;;;;4915027;29;20091;-67
2021/11/03 06:40:03;;;;;;;;;;;;;;;;;;4907154;29;19934;-57
2021/11/03 06:42:29;;;;;;;;;;;;;;;;;;4905381;29;19926;-63
2021/11/03 06:44:55;;;;;;;;;;;;;;;;;;4904657;29;19911;-63
2021/11/03 06:47:21;;;;;;;;;;;;;;;;;;4914894;29;20062;-64
2021/11/03 06:49:47;;;;;;;;;;;;;;;;;;4921419;29;19911;-59
2021/11/03 06:52:13;;;;;;;;;;;;;;;;;;4900087;29;19930;-59
2021/11/03 06:54:39;;;;;;;;;;;;;;;;;;4896855;29;19908;-58
2021/11/03 06:57:05;;;;;;;;;;;;;;;;;;4896583;29;19915;-64
2021/11/03 06:59:31;;;;;;;;;;;;;;;;;;4896581;29;20374;-58
2021/11/03 07:01:56;;;;;;;;;;;;;;;;;;4895962;29;19918;-58
2021/11/03 07:04:22;;;;;;;;;;;;;;;;;;4895823;29;19911;-64
2021/11/03 07:06:48;;;;;;;;;;;;;;;;;;4895141;29;19907;-61
2021/11/03 07:09:14;;;;;;;;;;;;;;;;;;4895272;29;19955;-57
2021/11/03 07:11:40;;;;;;;;;;;;;;;;;;4895209;29;19911;-62
2021/11/03 07:14:06;;;;;;;;;;;;;;;;;;4896729;29;19919;-64
2021/11/03 07:16:32;;;;;;;;;;;;;;;;;;4896564;29;19903;-60
2021/11/03 07:18:58;;;;;;;;;;;;;;;;;;4895957;29;20375;-62
2021/11/03 07:21:24;;;;;;;;;;;;;;;;;;4879576;29;19975;-65
2021/11/03 07:23:50;;;;;;;;;;;;;;;;;;4896676;29;19923;-65
2021/11/03 07:26:16;;;;;;;;;;;;;;;;;;4896568;29;19911;-63
2021/11/03 07:28:42;;;;;;;;;;;;;;;;;;4896480;29;20679;-62
2021/11/03 07:31:08;;;;;;;;;;;;;;;;;;4896047;29;20005;-65
2021/11/03 07:33:34;;;;;;;;;;;;;;;;;;4896627;29;19918;-61
2021/11/03 07:36:00;;;;;;;;;;;;;;;;;;4895301;29;20805;-63
2021/11/03 07:38:26;;;;;;;;;;;;;;;;;;4894974;29;19907;-64
2021/11/03 07:40:52;;;;;;;;;;;;;;;;;;4894284;29;19911;-63
2021/11/03 07:43:18;;;;;;;;;;;;;;;;;;4895716;29;19927;-63
2021/11/03 07:45:45;;;;;;;;;;;;;;;;;;4895166;29;19994;-64
2021/11/03 07:48:11;;;;;;;;;;;;;;;;;;4894814;29;20010;-65
2021/11/03 07:50:37;;;;;;;;;;;;;;;;;;4894514;29;19919;-60
2021/11/03 07:53:03;;;;;;;;;;;;;;;;;;4894843;29;20629;-61
2021/11/03 07:55:29;;;;;;;;;;;;;;;;;;4894580;29;19919;-61
2021/11/03 07:57:55;;;;;;;;;;;;;;;;;;4894650;29;20363;-63
2021/11/03 08:00:21;;;;;;;;;;;;;;;;;;4894437;29;19979;-68
2021/11/03 08:02:47;;;;;;;;;;;;;;;;;;4896347;29;20364;-66
2021/11/03 08:05:13;;;;;;;;;;;;;;;;;;4895545;29;19915;-64
2021/11/03 08:07:39;;;;;;;;;;;;;;;;;;4894526;29;20805;-66
2021/11/03 08:10:11;;;;;;;;;;;;;;;;;;4878437;29;19912;-59
2021/11/03 08:12:37;;;;;;;;;;;;;;;;;;4895084;29;20002;-62
2021/11/03 08:15:03;;;;;;;;;;;;;;;;;;4895797;29;20014;-58
2021/11/03 08:17:29;;;;;;;;;;;;;;;;;;4895101;29;19907;-64
2021/11/03 08:19:56;;;;;;;;;;;;;;;;;;4895565;29;19930;-65
2021/11/03 08:22:24;;;;;;;;;;;;;;;;;;4895345;29;20122;-69
2021/11/03 08:24:50;;;;;;;;;;;;;;;;;;4895148;29;19922;-58
2021/11/03 08:27:17;;;;;;;;;;;;;;;;;;4895004;29;19915;-61
2021/11/03 08:29:43;;;;;;;;;;;;;;;;;;4895428;29;19929;-65
2021/11/03 08:32:09;;;;;;;;;;;;;;;;;;4895676;29;19907;-65
2021/11/03 08:34:35;;;;;;;;;;;;;;;;;;4895676;29;19984;-63
2021/11/03 08:37:01;;;;;;;;;;;;;;;;;;4896053;29;20305;-62
2021/11/03 08:39:27;;;;;;;;;;;;;;;;;;4895485;29;20014;-63
2021/11/03 08:41:52;;;;;;;;;;;;;;;;;;4895619;29;19942;-59
2021/11/03 08:44:18;;;;;;;;;;;;;;;;;;4895334;29;20006;-64
2021/11/03 08:46:44;;;;;;;;;;;;;;;;;;4895816;29;20002;-66
2021/11/03 08:49:10;;;;;;;;;;;;;;;;;;4894743;29;20045;-65
2021/11/03 08:51:36;;;;;;;;;;;;;;;;;;4894592;29;20444;-64
2021/11/03 08:54:03;;;;;;;;;;;;;;;;;;4895251;29;19998;-63
2021/11/03 08:56:29;;;;;;;;;;;;;;;;;;4893208;29;19947;-61
2021/11/03 08:58:55;;;;;;;;;;;;;;;;;;4894737;29;19947;-59
2021/11/03 09:01:21;;;;;;;;;;;;;;;;;;4897743;29;20390;-66
2021/11/03 09:03:47;;;;;;;;;;;;;;;;;;4899025;29;19942;-67
2021/11/03 09:06:13;;;;;;;;;;;;;;;;;;4898765;29;19921;-65
2021/11/03 09:08:39;;;;;;;;;;;;;;;;;;4899006;29;19956;-61
2021/11/03 09:11:05;;;;;;;;;;;;;;;;;;4899066;29;19983;-59
2021/11/03 09:13:32;;;;;;;;;;;;;;;;;;4898787;29;19908;-61
2021/11/03 09:15:58;;;;;;;;;;;;;;;;;;4898599;29;19915;-58
2021/11/03 09:18:24;;;;;;;;;;;;;;;;;;4896967;29;19970;-60
2021/11/03 09:20:50;;;;;;;;;;;;;;;;;;4896597;29;19911;-67
2021/11/03 09:23:16;;;;;;;;;;;;;;;;;;4896514;29;20002;-69
2021/11/03 09:25:41;;;;;;;;;;;;;;;;;;4896709;29;19918;-64
2021/11/03 09:28:07;;;;;;;;;;;;;;;;;;4896247;29;20356;-68
2021/11/03 09:30:33;;;;;;;;;;;;;;;;;;4897159;29;20018;-65
2021/11/03 09:33:00;;;;;;;;;;;;;;;;;;4896822;29;20275;-64
2021/11/03 09:35:26;;;;;;;;;;;;;;;;;;4897257;29;19915;-65
2021/11/03 09:37:52;;;;;;;;;;;;;;;;;;4898039;29;19907;-64
2021/11/03 09:40:18;;;;;;;;;;;;;;;;;;4898576;29;19907;-65
2021/11/03 09:42:44;;;;;;;;;;;;;;;;;;4898108;29;19966;-63
2021/11/03 09:45:10;;;;;;;;;;;;;;;;;;4898128;29;19911;-61
2021/11/03 09:47:36;;;;;;;;;;;;;;;;;;4897116;29;19968;-58
2021/11/03 09:50:02;;;;;;;;;;;;;;;;;;4895795;29;20010;-58
2021/11/03 09:52:28;;;;;;;;;;;;;;;;;;4897302;29;20487;-64
2021/11/03 09:54:54;;;;;;;;;;;;;;;;;;4898452;29;19934;-62
2021/11/03 09:57:20;;;;;;;;;;;;;;;;;;4881593;29;20356;-59
2021/11/03 09:59:46;;;;;;;;;;;;;;;;;;4898167;29;20055;-59
2021/11/03 10:02:12;;;;;;;;;;;;;;;;;;4897792;29;20386;-60
2021/11/03 10:04:38;;;;;;;;;;;;;;;;;;4897825;29;20383;-65
2021/11/03 10:07:04;;;;;;;;;;;;;;;;;;4898177;29;19919;-62
2021/11/03 10:09:30;;;;;;;;;;;;;;;;;;4898285;29;19934;-60
2021/11/03 10:11:56;;;;;;;;;;;;;;;;;;4896416;29;20294;-62
2021/11/03 10:14:22;;;;;;;;;;;;;;;;;;4895397;29;19915;-57
2021/11/03 10:16:48;;;;;;;;;;;;;;;;;;4895608;29;20455;-58
2021/11/03 10:19:14;;;;;;;;;;;;;;;;;;4895730;29;19945;-60
2021/11/03 10:21:40;;;;;;;;;;;;;;;;;;4895445;29;19997;-67
2021/11/03 10:24:06;;;;;;;;;;;;;;;;;;4896519;29;20042;-71
2021/11/03 10:26:32;;;;;;;;;;;;;;;;;;4896225;29;19990;-71
2021/11/03 10:28:57;;;;;;;;;;;;;;;;;;4896429;29;19914;-61
2021/11/03 10:31:23;;;;;;;;;;;;;;;;;;4893647;29;20382;-62
2021/11/03 10:33:50;;;;;;;;;;;;;;;;;;4897018;29;19908;-58
2021/11/03 10:36:16;;;;;;;;;;;;;;;;;;4897049;29;19911;-65
2021/11/03 10:38:41;;;;;;;;;;;;;;;;;;4897438;29;19907;-66
2021/11/03 10:41:07;;;;;;;;;;;;;;;;;;4897414;29;19908;-70
2021/11/03 10:43:33;;;;;;;;;;;;;;;;;;4897433;29;19923;-66
2021/11/03 10:45:59;;;;;;;;;;;;;;;;;;4896964;29;19912;-68
2021/11/03 10:48:27;;;;;;;;;;;;;;;;;;4897277;29;19914;-61
2021/11/03 10:50:53;;;;;;;;;;;;;;;;;;4896649;29;19919;-63
2021/11/03 10:53:19;;;;;;;;;;;;;;;;;;4897330;29;19939;-60
2021/11/03 10:55:44;;;;;;;;;;;;;;;;;;4896724;29;19912;-67
2021/11/03 10:58:10;;;;;;;;;;;;;;;;;;4897135;29;20383;-64
2021/11/03 11:00:36;;;;;;;;;;;;;;;;;;4897039;29;19915;-66
2021/11/03 11:03:02;;;;;;;;;;;;;;;;;;4896973;29;20292;-69
2021/11/03 11:05:28;;;;;;;;;;;;;;;;;;4896593;29;20035;-61
2021/11/03 11:07:54;;;;;;;;;;;;;;;;;;4896668;29;19915;-71
2021/11/03 11:10:20;;;;;;;;;;;;;;;;;;4895352;29;19918;-62
2021/11/03 11:12:46;;;;;;;;;;;;;;;;;;4896641;29;20288;-62
2021/11/03 11:15:12;;;;;;;;;;;;;;;;;;4896816;29;19919;-63
2021/11/03 11:17:44;;;;;;;;;;;;;;;;;;4896689;29;19912;-63
2021/11/03 11:20:10;;;;;;;;;;;;;;;;;;4896754;29;19911;-66
2021/11/03 11:22:36;;;;;;;;;;;;;;;;;;4895071;29;20264;-66
2021/11/03 11:25:02;;;;;;;;;;;;;;;;;;4896124;29;20427;-62
2021/11/03 11:27:28;;;;;;;;;;;;;;;;;;4896569;29;19913;-67
2021/11/03 11:29:54;;;;;;;;;;;;;;;;;;4896178;29;20025;-63
2021/11/03 11:32:20;;;;;;;;;;;;;;;;;;4896590;29;20279;-70
2021/11/03 11:34:46;;;;;;;;;;;;;;;;;;4896144;29;19907;-65
2021/11/03 11:37:11;;;;;;;;;;;;;;;;;;4878969;29;20486;-66
2021/11/03 11:39:37;;;;;;;;;;;;;;;;;;4896404;29;19947;-63
2021/11/03 11:42:03;;;;;;;;;;;;;;;;;;4896470;29;20340;-73
2021/11/03 11:44:29;;;;;;;;;;;;;;;;;;4900734;29;19910;-63
2021/11/03 11:46:55;;;;;;;;;;;;;;;;;;4914085;29;19911;-72
2021/11/03 11:49:22;;;;;;;;;;;;;;;;;;4914159;29;19911;-63
2021/11/03 11:51:47;;;;;;;;;;;;;;;;;;4913652;29;20292;-63
2021/11/03 11:54:13;;;;;;;;;;;;;;;;;;4914709;29;19919;-69
2021/11/03 11:56:39;;;;;;;;;;;;;;;;;;4903462;29;20000;-72
2021/11/03 11:59:05;;;;;;;;;;;;;;;;;;4895675;29;19959;-72
2021/11/03 12:01:31;;;;;;;;;;;;;;;;;;4908309;29;19942;-72
2021/11/03 12:03:57;;;;;;;;;;;;;;;;;;4914165;29;19962;-71
2021/11/03 12:06:23;;;;;;;;;;;;;;;;;;4913617;29;19958;-71
2021/11/03 12:08:49;;;;;;;;;;;;;;;;;;4913760;29;20294;-73
2021/11/03 12:11:15;;;;;;;;;;;;;;;;;;4913532;29;19992;-66
2021/11/03 12:13:41;;;;;;;;;;;;;;;;;;4913760;29;20283;-66
2021/11/03 12:16:07;;;;;;;;;;;;;;;;;;4913927;29;20323;-64
2021/11/03 12:18:33;;;;;;;;;;;;;;;;;;4913749;29;20344;-75
2021/11/03 12:20:59;;;;;;;;;;;;;;;;;;4905633;29;20415;-70
2021/11/03 12:23:25;;;;;;;;;;;;;;;;;;4892699;29;19961;-72
2021/11/03 12:25:51;;;;;;;;;;;;;;;;;;4899515;29;19954;-62
2021/11/03 12:28:19;;;;;;;;;;;;;;;;;;4913774;29;20005;-65
2021/11/03 12:30:45;;;;;;;;;;;;;;;;;;4913000;29;20375;-69
2021/11/03 12:33:11;;;;;;;;;;;;;;;;;;4908849;29;19922;-69
2021/11/03 12:35:37;;;;;;;;;;;;;;;;;;4916263;29;19911;-72
2021/11/03 12:38:03;;;;;;;;;;;;;;;;;;4916428;29;19915;-69
2021/11/03 12:40:29;;;;;;;;;;;;;;;;;;4916800;29;19911;-70
2021/11/03 12:42:55;;;;;;;;;;;;;;;;;;4912588;29;19915;-63
2021/11/03 12:45:21;;;;;;;;;;;;;;;;;;4899762;29;19919;-66
2021/11/03 12:47:47;;;;;;;;;;;;;;;;;;4915970;29;20640;-67
2021/11/03 12:50:13;;;;;;;;;;;;;;;;;;4915269;29;20013;-61
2021/11/03 12:52:39;;;;;;;;;;;;;;;;;;4915982;29;20022;-69
2021/11/03 12:55:05;;;;;;;;;;;;;;;;;;4916701;29;19954;-62
2021/11/03 12:57:31;;;;;;;;;;;;;;;;;;4916686;29;19907;-68
2021/11/03 12:59:57;;;;;;;;;;;;;;;;;;4916824;29;20404;-61
2021/11/03 13:02:24;;;;;;;;;;;;;;;;;;4916575;29;20005;-65
2021/11/03 13:04:50;;;;;;;;;;;;;;;;;;4916437;29;19922;-66
2021/11/03 13:07:17;;;;;;;;;;;;;;;;;;4916130;29;19907;-64
2021/11/03 13:09:43;;;;;;;;;;;;;;;;;;4915214;29;19911;-64
2021/11/03 13:12:08;;;;;;;;;;;;;;;;;;4914867;29;19910;-65
2021/11/03 13:14:34;;;;;;;;;;;;;;;;;;4897997;29;19919;-66
2021/11/03 13:17:00;;;;;;;;;;;;;;;;;;4917312;29;20286;-67
2021/11/03 13:19:26;;;;;;;;;;;;;;;;;;4916971;29;19979;-69
2021/11/03 13:21:52;;;;;;;;;;;;;;;;;;4878790;29;19963;-64
2021/11/03 13:24:18;;;;;;;;;;;;;;;;;;4897081;29;19919;-63
2021/11/03 13:26:44;;;;;;;;;;;;;;;;;;4897214;29;19916;-65
2021/11/03 13:29:10;;;;;;;;;;;;;;;;;;4897676;29;20002;-62
2021/11/03 13:31:36;;;;;;;;;;;;;;;;;;4897515;29;19934;-63
2021/11/03 13:34:02;;;;;;;;;;;;;;;;;;4897454;29;20278;-67
2021/11/03 13:36:28;;;;;;;;;;;;;;;;;;4897047;29;19915;-63
2021/11/03 13:38:54;;;;;;;;;;;;;;;;;;4897144;29;19911;-63
2021/11/03 13:41:20;;;;;;;;;;;;;;;;;;4898683;29;20336;-62
2021/11/03 13:43:46;;;;;;;;;;;;;;;;;;4907624;29;19927;-66
2021/11/03 13:46:12;;;;;;;;;;;;;;;;;;4912255;29;19958;-65
2021/11/03 13:48:38;;;;;;;;;;;;;;;;;;4908501;29;19911;-63
2021/11/03 13:51:03;;;;;;;;;;;;;;;;;;4902297;29;20134;-68
2021/11/03 13:53:29;;;;;;;;;;;;;;;;;;4902939;29;20619;-68
2021/11/03 13:55:55;;;;;;;;;;;;;;;;;;4899693;29;20374;-68
2021/11/03 13:58:21;;;;;;;;;;;;;;;;;;4899529;29;19912;-66
2021/11/03 14:00:47;;;;;;;;;;;;;;;;;;4904957;29;20355;-63
2021/11/03 14:03:13;;;;;;;;;;;;;;;;;;4910808;29;19919;-65
2021/11/03 14:05:39;;;;;;;;;;;;;;;;;;4896385;29;19915;-64
2021/11/03 14:08:06;;;;;;;;;;;;;;;;;;4905617;29;19907;-61
2021/11/03 14:10:32;;;;;;;;;;;;;;;;;;4910111;29;20271;-68
2021/11/03 14:12:58;;;;;;;;;;;;;;;;;;4908942;29;19910;-62
2021/11/03 14:15:23;;;;;;;;;;;;;;;;;;4915245;29;19918;-66
2021/11/03 14:17:49;;;;;;;;;;;;;;;;;;4915403;29;20359;-63
2021/11/03 14:20:16;;;;;;;;;;;;;;;;;;4908145;29;19915;-67
2021/11/03 14:22:42;;;;;;;;;;;;;;;;;;4913692;29;19925;-61
2021/11/03 14:25:08;;;;;;;;;;;;;;;;;;4909293;29;20036;-63
2021/11/03 14:27:34;;;;;;;;;;;;;;;;;;4903039;29;19997;-62
2021/11/03 14:30:00;;;;;;;;;;;;;;;;;;4915427;29;20354;-64
2021/11/03 14:32:25;;;;;;;;;;;;;;;;;;4915801;29;20382;-63
2021/11/03 14:34:52;;;;;;;;;;;;;;;;;;4912079;29;19915;-63
2021/11/03 14:37:18;;;;;;;;;;;;;;;;;;4913493;29;19961;-63
2021/11/03 14:39:49;;;;;;;;;;;;;;;;;;4897478;29;20344;-62
2021/11/03 14:42:16;;;;;;;;;;;;;;;;;;4914897;29;19958;-62
2021/11/03 14:44:42;;;;;;;;;;;;;;;;;;4914876;29;20367;-64
2021/11/03 14:47:09;;;;;;;;;;;;;;;;;;4914920;29;20382;-63
2021/11/03 14:49:35;;;;;;;;;;;;;;;;;;4910720;29;19919;-64
2021/11/03 14:52:01;;;;;;;;;;;;;;;;;;4914680;29;19966;-64
2021/11/03 14:54:27;;;;;;;;;;;;;;;;;;4907619;29;19947;-65
2021/11/03 14:56:52;;;;;;;;;;;;;;;;;;4914671;29;19918;-62
2021/11/03 14:59:18;;;;;;;;;;;;;;;;;;4885261;29;19958;-63
2021/11/03 15:01:44;;;;;;;;;;;;;;;;;;4897601;29;20284;-63
2021/11/03 15:04:10;;;;;;;;;;;;;;;;;;4912716;29;19958;-64
2021/11/03 15:06:36;;;;;;;;;;;;;;;;;;4910143;29;19921;-62
2021/11/03 15:09:02;;;;;;;;;;;;;;;;;;4910477;29;20489;-62
2021/11/03 15:11:28;;;;;;;;;;;;;;;;;;4905193;29;19915;-61
2021/11/03 15:13:54;;;;;;;;;;;;;;;;;;4896317;29;19927;-62
2021/11/03 15:16:20;;;;;;;;;;;;;;;;;;4912588;29;19915;-61
2021/11/03 15:18:46;;;;;;;;;;;;;;;;;;4910236;29;19915;-63
2021/11/03 15:21:12;;;;;;;;;;;;;;;;;;4905079;29;19915;-62
2021/11/03 15:23:38;;;;;;;;;;;;;;;;;;4898844;29;19919;-62
2021/11/03 15:26:04;;;;;;;;;;;;;;;;;;4901297;29;20677;-63
2021/11/03 15:28:30;;;;;;;;;;;;;;;;;;4883942;29;20367;-62
2021/11/03 15:30:56;;;;;;;;;;;;;;;;;;4900853;29;19920;-61
2021/11/03 15:33:22;;;;;;;;;;;;;;;;;;4901320;29;19912;-61
2021/11/03 15:35:48;;;;;;;;;;;;;;;;;;4895043;29;19912;-66
2021/11/03 15:38:14;;;;;;;;;;;;;;;;;;4899629;29;19962;-63
2021/11/03 15:40:40;;;;;;;;;;;;;;;;;;4907534;29;20014;-61
2021/11/03 15:43:06;;;;;;;;;;;;;;;;;;4905148;29;20396;-62
2021/11/03 15:45:32;;;;;;;;;;;;;;;;;;4888123;29;19944;-63
2021/11/03 15:47:58;;;;;;;;;;;;;;;;;;4913776;29;19917;-63
2021/11/03 15:50:26;;;;;;;;;;;;;;;;;;4913822;29;20278;-63
2021/11/03 15:52:52;;;;;;;;;;;;;;;;;;4914037;29;19922;-64
2021/11/03 15:55:18;;;;;;;;;;;;;;;;;;4914091;29;19911;-63
2021/11/03 15:57:44;;;;;;;;;;;;;;;;;;4896938;29;20375;-65
2021/11/03 16:00:10;;;;;;;;;;;;;;;;;;4914447;29;20320;-63
2021/11/03 16:02:36;;;;;;;;;;;;;;;;;;4913407;29;19915;-63
2021/11/03 16:05:04;;;;;;;;;;;;;;;;;;4913852;29;20331;-63
2021/11/03 16:07:30;;;;;;;;;;;;;;;;;;4913572;29;19921;-64
2021/11/03 16:09:56;;;;;;;;;;;;;;;;;;4915821;29;19918;-64
2021/11/03 16:12:22;;;;;;;;;;;;;;;;;;4918314;29;19911;-64
2021/11/03 16:14:48;;;;;;;;;;;;;;;;;;4918453;29;20535;-63
2021/11/03 16:17:14;;;;;;;;;;;;;;;;;;4917526;29;20330;-63
2021/11/03 16:19:40;;;;;;;;;;;;;;;;;;4917287;29;19911;-63
2021/11/03 16:22:06;;;;;;;;;;;;;;;;;;4917669;29;20331;-62
2021/11/03 16:24:32;;;;;;;;;;;;;;;;;;4909966;29;19923;-63
2021/11/03 16:26:58;;;;;;;;;;;;;;;;;;4915251;29;19910;-63
2021/11/03 16:29:24;;;;;;;;;;;;;;;;;;4894330;29;19959;-62
2021/11/03 16:31:50;;;;;;;;;;;;;;;;;;4915666;29;19986;-64
2021/11/03 16:34:16;;;;;;;;;;;;;;;;;;4917636;29;19907;-65
2021/11/03 16:36:45;;;;;;;;;;;;;;;;;;4902586;29;19919;-65
2021/11/03 16:39:11;;;;;;;;;;;;;;;;;;4898687;29;20410;-63
2021/11/03 16:41:38;;;;;;;;;;;;;;;;;;4906954;29;20398;-68
2021/11/03 16:44:04;;;;;;;;;;;;;;;;;;4915044;29;19919;-63
2021/11/03 16:46:30;;;;;;;;;;;;;;;;;;4900565;29;19914;-65
2021/11/03 16:48:56;;;;;;;;;;;;;;;;;;4917265;29;19914;-64
2021/11/03 16:51:22;;;;;;;;;;;;;;;;;;4903096;29;20380;-67
2021/11/03 16:53:48;;;;;;;;;;;;;;;;;;4898142;29;19907;-66
2021/11/03 16:56:13;;;;;;;;;;;;;;;;;;4898372;29;19907;-68
2021/11/03 16:58:40;;;;;;;;;;;;;;;;;;4898132;29;19911;-66
2021/11/03 17:01:06;;;;;;;;;;;;;;;;;;4897842;29;19998;-66
2021/11/03 17:03:32;;;;;;;;;;;;;;;;;;4897928;29;20009;-67
2021/11/03 17:05:58;;;;;;;;;;;;;;;;;;4898078;29;19907;-67
2021/11/03 17:08:24;;;;;;;;;;;;;;;;;;4897869;29;20377;-65
2021/11/03 17:10:50;;;;;;;;;;;;;;;;;;4898700;29;20431;-67
2021/11/03 17:13:16;;;;;;;;;;;;;;;;;;4898364;29;20012;-65
2021/11/03 17:15:42;;;;;;;;;;;;;;;;;;4897985;29;19915;-70
2021/11/03 17:18:08;;;;;;;;;;;;;;;;;;4898457;29;19922;-68
2021/11/03 17:20:33;;;;;;;;;;;;;;;;;;4896552;29;19919;-66
2021/11/03 17:22:59;;;;;;;;;;;;;;;;;;4897188;29;19935;-68
2021/11/03 17:25:25;;;;;;;;;;;;;;;;;;4898693;29;19915;-66
2021/11/03 17:27:51;;;;;;;;;;;;;;;;;;4897280;29;19951;-67
2021/11/03 17:30:17;;;;;;;;;;;;;;;;;;4897606;29;19966;-67
2021/11/03 17:32:43;;;;;;;;;;;;;;;;;;4893628;29;20272;-67
2021/11/03 17:35:09;;;;;;;;;;;;;;;;;;4895371;29;19907;-65
2021/11/03 17:37:35;;;;;;;;;;;;;;;;;;4885859;29;19918;-64
2021/11/03 17:40:01;;;;;;;;;;;;;;;;;;4862534;29;20407;-63
2021/11/03 17:42:27;;;;;;;;;;;;;;;;;;4894578;29;19951;-63
2021/11/03 17:44:57;;;;;;;;;;;;;;;;;;4896942;29;19907;-68
2021/11/03 17:47:24;;;;;;;;;;;;;;;;;;4897986;29;19907;-70
2021/11/03 17:49:52;;;;;;;;;;;;;;;;;;4899749;29;19911;-62
2021/11/03 17:52:18;;;;;;;;;;;;;;;;;;4916859;29;19919;-64
2021/11/03 17:54:43;;;;;;;;;;;;;;;;;;4916302;29;19918;-63
2021/11/03 17:57:09;;;;;;;;;;;;;;;;;;4916929;29;19907;-65
2021/11/03 17:59:35;;;;;;;;;;;;;;;;;;4915831;29;20286;-64
2021/11/03 18:02:01;;;;;;;;;;;;;;;;;;4916075;29;19918;-69
2021/11/03 18:04:27;;;;;;;;;;;;;;;;;;4916223;29;19915;-63
2021/11/03 18:06:53;;;;;;;;;;;;;;;;;;4916616;29;19910;-62
2021/11/03 18:09:19;;;;;;;;;;;;;;;;;;4916666;29;19917;-63
2021/11/03 18:11:45;;;;;;;;;;;;;;;;;;4899651;29;19911;-63
2021/11/03 18:14:11;;;;;;;;;;;;;;;;;;4915387;29;20038;-63
2021/11/03 18:16:37;;;;;;;;;;;;;;;;;;4915550;29;20335;-64
2021/11/03 18:19:03;;;;;;;;;;;;;;;;;;4914799;29;19911;-64
2021/11/03 18:21:28;;;;;;;;;;;;;;;;;;4912361;29;19919;-63
2021/11/03 18:23:56;;;;;;;;;;;;;;;;;;4914014;29;19975;-64
2021/11/03 18:26:22;;;;;;;;;;;;;;;;;;4912327;29;19918;-68
2021/11/03 18:28:48;;;;;;;;;;;;;;;;;;4914480;29;19915;-64
2021/11/03 18:31:14;;;;;;;;;;;;;;;;;;4896473;29;19926;-64
2021/11/03 18:33:40;;;;;;;;;;;;;;;;;;4897234;29;20363;-68
2021/11/03 18:36:06;;;;;;;;;;;;;;;;;;4897621;29;19915;-67
2021/11/03 18:38:32;;;;;;;;;;;;;;;;;;4895815;29;19911;-66
2021/11/03 18:40:58;;;;;;;;;;;;;;;;;;4897007;29;19919;-63
2021/11/03 18:43:24;;;;;;;;;;;;;;;;;;4897418;29;19942;-65
2021/11/03 18:45:50;;;;;;;;;;;;;;;;;;4897513;29;19942;-63
2021/11/03 18:48:16;;;;;;;;;;;;;;;;;;4896950;29;19942;-65
2021/11/03 18:50:42;;;;;;;;;;;;;;;;;;4896910;29;19950;-64
2021/11/03 18:53:08;;;;;;;;;;;;;;;;;;4896557;29;19916;-63
2021/11/03 18:55:34;;;;;;;;;;;;;;;;;;4896828;29;20248;-62
2021/11/03 18:58:00;;;;;;;;;;;;;;;;;;4896351;29;19918;-63
2021/11/03 19:00:26;;;;;;;;;;;;;;;;;;4897138;29;20005;-63
2021/11/03 19:02:52;;;;;;;;;;;;;;;;;;4896218;29;20444;-67
2021/11/03 19:05:18;;;;;;;;;;;;;;;;;;4896567;29;20249;-63
2021/11/03 19:07:44;;;;;;;;;;;;;;;;;;4896928;29;19908;-65
2021/11/03 19:10:11;;;;;;;;;;;;;;;;;;4895709;29;19922;-63
2021/11/03 19:12:37;;;;;;;;;;;;;;;;;;4895836;29;20295;-63
2021/11/03 19:15:03;;;;;;;;;;;;;;;;;;4896669;29;19907;-64
2021/11/03 19:17:29;;;;;;;;;;;;;;;;;;4896931;29;19907;-64
2021/11/03 19:19:55;;;;;;;;;;;;;;;;;;4896435;29;19911;-64
2021/11/03 19:22:21;;;;;;;;;;;;;;;;;;4896652;29;20288;-65
2021/11/03 19:24:47;;;;;;;;;;;;;;;;;;4896664;29;19911;-65
2021/11/03 19:27:12;;;;;;;;;;;;;;;;;;4896615;29;19915;-63
2021/11/03 19:29:39;;;;;;;;;;;;;;;;;;4896443;29;19914;-64
2021/11/03 19:32:04;;;;;;;;;;;;;;;;;;4896521;29;19916;-69
2021/11/03 19:34:30;;;;;;;;;;;;;;;;;;4896794;29;19917;-63
2021/11/03 19:36:56;;;;;;;;;;;;;;;;;;4896666;29;20002;-64
2021/11/03 19:39:24;;;;;;;;;;;;;;;;;;4896529;29;20431;-64
2021/11/03 19:41:50;;;;;;;;;;;;;;;;;;4896585;29;20291;-67
2021/11/03 19:44:20;;;;;;;;;;;;;;;;;;4895400;29;19916;-64
2021/11/03 19:46:46;;;;;;;;;;;;;;;;;;4896723;29;20283;-65
2021/11/03 19:49:12;;;;;;;;;;;;;;;;;;4896419;29;19963;-67
2021/11/03 19:51:38;;;;;;;;;;;;;;;;;;4896142;29;20299;-65
2021/11/03 19:54:04;;;;;;;;;;;;;;;;;;4896099;29;20355;-68
2021/11/03 19:56:30;;;;;;;;;;;;;;;;;;4896376;29;19915;-64
2021/11/03 19:58:56;;;;;;;;;;;;;;;;;;4896566;29;20275;-65
2021/11/03 20:01:23;;;;;;;;;;;;;;;;;;4896210;29;19907;-66
2021/11/03 20:03:49;;;;;;;;;;;;;;;;;;4895851;29;20427;-65
2021/11/03 20:06:15;;;;;;;;;;;;;;;;;;4896379;29;20046;-65
2021/11/03 20:08:41;;;;;;;;;;;;;;;;;;4896002;29;19907;-64
2021/11/03 20:11:07;;;;;;;;;;;;;;;;;;4895568;29;19912;-66
2021/11/03 20:13:33;;;;;;;;;;;;;;;;;;4900441;29;19911;-66
2021/11/03 20:15:58;;;;;;;;;;;;;;;;;;4914765;29;20371;-67
2021/11/03 20:18:24;;;;;;;;;;;;;;;;;;4914688;29;19915;-64
2021/11/03 20:20:50;;;;;;;;;;;;;;;;;;4897448;29;19912;-65
2021/11/03 20:23:16;;;;;;;;;;;;;;;;;;4896048;29;19916;-65
2021/11/03 20:25:42;;;;;;;;;;;;;;;;;;4896318;29;19911;-63
2021/11/03 20:28:08;;;;;;;;;;;;;;;;;;4896223;29;20041;-64
2021/11/03 20:30:34;;;;;;;;;;;;;;;;;;4895990;29;19958;-62
2021/11/03 20:33:00;;;;;;;;;;;;;;;;;;4896283;29;19911;-62
2021/11/03 20:35:26;;;;;;;;;;;;;;;;;;4895655;29;19976;-68
2021/11/03 20:37:52;;;;;;;;;;;;;;;;;;4895521;29;20330;-67
2021/11/03 20:40:18;;;;;;;;;;;;;;;;;;4895876;29;19914;-62
2021/11/03 20:42:44;;;;;;;;;;;;;;;;;;4899332;29;19919;-67
2021/11/03 20:45:10;;;;;;;;;;;;;;;;;;4913773;29;19974;-65
2021/11/03 20:47:36;;;;;;;;;;;;;;;;;;4885379;29;19937;-64
2021/11/03 20:50:02;;;;;;;;;;;;;;;;;;4913657;29;19911;-67
2021/11/03 20:52:28;;;;;;;;;;;;;;;;;;4914277;29;19926;-64
2021/11/03 20:54:53;;;;;;;;;;;;;;;;;;4915186;29;20379;-67
2021/11/03 20:57:19;;;;;;;;;;;;;;;;;;4918585;29;19914;-64
2021/11/03 20:59:45;;;;;;;;;;;;;;;;;;4918188;29;20062;-66
2021/11/03 21:02:11;;;;;;;;;;;;;;;;;;4917567;29;20001;-64
2021/11/03 21:04:37;;;;;;;;;;;;;;;;;;4918117;29;20021;-66
2021/11/03 21:07:03;;;;;;;;;;;;;;;;;;4918276;29;20046;-66
2021/11/03 21:09:29;;;;;;;;;;;;;;;;;;4918348;29;19993;-67
2021/11/03 21:11:55;;;;;;;;;;;;;;;;;;4917582;29;20362;-70
2021/11/03 21:14:21;;;;;;;;;;;;;;;;;;4917341;29;20009;-68
2021/11/03 21:16:47;;;;;;;;;;;;;;;;;;4899469;29;19908;-67
2021/11/03 21:19:13;;;;;;;;;;;;;;;;;;4899129;29;20006;-62
2021/11/03 21:21:39;;;;;;;;;;;;;;;;;;4898889;29;20355;-66
2021/11/03 21:24:05;;;;;;;;;;;;;;;;;;4898724;29;19926;-60
2021/11/03 21:26:30;;;;;;;;;;;;;;;;;;4898913;29;19946;-61
2021/11/03 21:28:56;;;;;;;;;;;;;;;;;;4898822;29;19943;-61
2021/11/03 21:31:22;;;;;;;;;;;;;;;;;;4898886;29;19995;-61
2021/11/03 21:33:52;;;;;;;;;;;;;;;;;;4898820;29;19963;-64
2021/11/03 21:36:18;;;;;;;;;;;;;;;;;;4898764;29;20275;-66
2021/11/03 21:38:44;;;;;;;;;;;;;;;;;;4898350;29;19915;-61
2021/11/03 21:41:10;;;;;;;;;;;;;;;;;;4905377;29;19956;-60
2021/11/03 21:43:36;;;;;;;;;;;;;;;;;;4895987;29;19922;-61
2021/11/03 21:46:02;;;;;;;;;;;;;;;;;;4906023;29;19911;-61
2021/11/03 21:48:28;;;;;;;;;;;;;;;;;;4917113;29;19907;-66
2021/11/03 21:50:54;;;;;;;;;;;;;;;;;;4916514;29;19929;-61
2021/11/03 21:53:20;;;;;;;;;;;;;;;;;;4917144;29;19911;-66
2021/11/03 21:55:46;;;;;;;;;;;;;;;;;;4917102;29;20378;-64
2021/11/03 21:58:12;;;;;;;;;;;;;;;;;;4917619;29;19911;-68
2021/11/03 22:00:38;;;;;;;;;;;;;;;;;;4917232;29;19903;-64
2021/11/03 22:03:04;;;;;;;;;;;;;;;;;;4917424;29;19945;-61
2021/11/03 22:05:30;;;;;;;;;;;;;;;;;;4900438;29;19911;-61
2021/11/03 22:07:56;;;;;;;;;;;;;;;;;;4916542;29;19918;-62
2021/11/03 22:10:22;;;;;;;;;;;;;;;;;;4917320;29;19911;-65
2021/11/03 22:12:48;;;;;;;;;;;;;;;;;;4910563;29;19990;-61
2021/11/03 22:15:14;;;;;;;;;;;;;;;;;;4898286;29;19921;-63
2021/11/03 22:17:40;;;;;;;;;;;;;;;;;;4898094;29;20272;-61
2021/11/03 22:20:06;;;;;;;;;;;;;;;;;;4898278;29;20423;-61
2021/11/03 22:22:33;;;;;;;;;;;;;;;;;;4897717;29;19935;-62
2021/11/03 22:24:59;;;;;;;;;;;;;;;;;;4897949;29;19919;-61
2021/11/03 22:27:25;;;;;;;;;;;;;;;;;;4897600;29;20307;-64